Time;durP1;ratioP1;P1;durP2;ratioP2;P2;SDS_P1;SDS_P2;PMS_P1;PMS_P2;Temp;Humidity;BMP_temperature;BMP_pressure;BME280_temperature;BME280_humidity;BME280_pressure;Samples;Min_cycle;Max_cycle;Signal;HPM_P1;HPM_P2
2021/08/29 00:00:48;;;;;;;7.90;6.37;;;;;;;;;;4994640;28;20407;-49
2021/08/29 00:03:14;;;;;;;6.50;5.90;;;;;;;;;;5012306;28;20418;-48
2021/08/29 00:05:40;;;;;;;10.80;6.77;;;;;;;;;;5011515;28;20410;-48
2021/08/29 00:08:06;;;;;;;10.53;5.40;;;;;;;;;;5011140;28;20509;-48
2021/08/29 00:10:32;;;;;;;6.20;5.60;;;;;;;;;;5012186;28;20454;-49
2021/08/29 00:12:58;;;;;;;8.90;6.00;;;;;;;;;;5011961;28;20399;-49
2021/08/29 00:15:24;;;;;;;6.90;5.97;;;;;;;;;;5010279;28;20417;-47
2021/08/29 00:17:50;;;;;;;6.97;5.73;;;;;;;;;;5012118;28;20418;-48
2021/08/29 00:20:17;;;;;;;10.60;6.40;;;;;;;;;;5012149;28;20406;-48
2021/08/29 00:22:42;;;;;;;8.03;5.63;;;;;;;;;;5011796;28;20407;-48
2021/08/29 00:25:09;;;;;;;8.70;6.73;;;;;;;;;;5012053;28;20449;-46
2021/08/29 00:27:35;;;;;;;12.73;5.90;;;;;;;;;;5012069;28;20500;-47
2021/08/29 00:30:01;;;;;;;7.23;5.50;;;;;;;;;;5012013;28;20890;-47
2021/08/29 00:32:27;;;;;;;8.43;4.60;;;;;;;;;;5011774;28;20869;-48
2021/08/29 00:34:53;;;;;;;13.83;6.90;;;;;;;;;;5012128;28;20399;-49
2021/08/29 00:37:18;;;;;;;7.07;5.13;;;;;;;;;;5010858;28;20481;-48
2021/08/29 00:39:44;;;;;;;9.70;5.33;;;;;;;;;;5012042;28;20468;-46
2021/08/29 00:42:10;;;;;;;6.13;5.50;;;;;;;;;;5011605;28;20435;-48
2021/08/29 00:44:39;;;;;;;9.10;5.40;;;;;;;;;;5015232;28;20469;-46
2021/08/29 00:47:06;;;;;;;6.90;6.20;;;;;;;;;;5015874;28;20517;-47
2021/08/29 00:49:32;;;;;;;10.97;5.50;;;;;;;;;;5015888;28;20416;-47
2021/08/29 00:52:02;;;;;;;10.57;5.43;;;;;;;;;;5015416;28;20454;-46
2021/08/29 00:54:29;;;;;;;8.30;5.40;;;;;;;;;;5015834;28;20409;-49
2021/08/29 00:56:55;;;;;;;10.07;5.70;;;;;;;;;;5015619;28;20759;-48
2021/08/29 00:59:22;;;;;;;20.17;5.97;;;;;;;;;;5015678;28;20415;-49
2021/08/29 01:01:53;;;;;;;8.83;5.97;;;;;;;;;;5015006;28;20377;-50
2021/08/29 01:04:21;;;;;;;10.17;6.20;;;;;;;;;;5015085;28;20406;-49
2021/08/29 01:06:51;;;;;;;8.20;5.73;;;;;;;;;;5013693;28;20432;-48
2021/08/29 01:09:18;;;;;;;8.83;6.20;;;;;;;;;;5015446;28;20418;-47
2021/08/29 01:11:46;;;;;;;10.77;6.47;;;;;;;;;;5014990;28;20421;-47
2021/08/29 01:14:14;;;;;;;10.20;6.53;;;;;;;;;;5015403;28;20406;-48
2021/08/29 01:16:40;;;;;;;8.30;6.60;;;;;;;;;;5015215;28;20789;-47
2021/08/29 01:19:09;;;;;;;11.30;7.03;;;;;;;;;;5015287;28;20374;-49
2021/08/29 01:21:36;;;;;;;9.90;7.30;;;;;;;;;;5015078;28;20414;-49
2021/08/29 01:24:03;;;;;;;8.73;7.20;;;;;;;;;;5015249;28;20414;-49
2021/08/29 01:26:35;;;;;;;11.47;6.80;;;;;;;;;;5015197;28;20886;-48
2021/08/29 01:29:03;;;;;;;14.83;6.80;;;;;;;;;;5015121;28;20526;-48
2021/08/29 01:31:32;;;;;;;11.47;7.13;;;;;;;;;;5014600;28;20873;-49
2021/08/29 01:34:01;;;;;;;11.10;6.67;;;;;;;;;;5014999;28;20498;-49
2021/08/29 01:36:27;;;;;;;14.57;6.47;;;;;;;;;;5014897;28;20396;-47
2021/08/29 01:38:54;;;;;;;14.07;6.60;;;;;;;;;;5013085;28;20434;-48
2021/08/29 01:41:20;;;;;;;11.83;7.23;;;;;;;;;;5014582;28;20898;-46
2021/08/29 01:43:46;;;;;;;9.43;6.70;;;;;;;;;;4997277;28;20758;-48
2021/08/29 01:46:13;;;;;;;8.23;7.03;;;;;;;;;;5014763;28;20453;-49
2021/08/29 01:48:42;;;;;;;11.57;8.20;;;;;;;;;;5014693;28;20856;-48
2021/08/29 01:51:10;;;;;;;15.40;7.30;;;;;;;;;;5014375;28;20433;-47
2021/08/29 01:53:36;;;;;;;15.63;7.57;;;;;;;;;;5014726;28;20388;-49
2021/08/29 01:56:03;;;;;;;11.80;8.30;;;;;;;;;;5013927;28;20433;-47
2021/08/29 01:58:29;;;;;;;11.60;6.80;;;;;;;;;;5014302;28;20421;-46
2021/08/29 02:00:58;;;;;;;9.03;6.60;;;;;;;;;;5014198;28;20889;-48
2021/08/29 02:03:25;;;;;;;14.63;7.60;;;;;;;;;;5014508;28;20408;-48
2021/08/29 02:05:56;;;;;;;7.27;6.23;;;;;;;;;;5014458;28;20428;-46
2021/08/29 02:08:22;;;;;;;14.97;7.60;;;;;;;;;;5013514;28;20451;-48
2021/08/29 02:10:49;;;;;;;9.03;6.97;;;;;;;;;;5014037;28;20799;-48
2021/08/29 02:13:16;;;;;;;13.40;7.23;;;;;;;;;;5014095;28;20786;-50
2021/08/29 02:15:44;;;;;;;16.00;8.17;;;;;;;;;;5014224;28;20467;-48
2021/08/29 02:18:12;;;;;;;10.93;7.53;;;;;;;;;;5014108;28;20394;-48
2021/08/29 02:20:38;;;;;;;9.23;6.63;;;;;;;;;;5014102;28;20453;-49
2021/08/29 02:23:05;;;;;;;8.50;5.93;;;;;;;;;;5013815;28;20439;-48
2021/08/29 02:25:31;;;;;;;9.00;6.80;;;;;;;;;;5014004;28;20410;-47
2021/08/29 02:27:57;;;;;;;17.80;7.70;;;;;;;;;;5013970;28;20505;-48
2021/08/29 02:30:23;;;;;;;10.67;6.67;;;;;;;;;;5013861;28;21047;-47
2021/08/29 02:32:51;;;;;;;21.00;7.00;;;;;;;;;;5013593;28;20399;-47
2021/08/29 02:35:19;;;;;;;12.80;8.53;;;;;;;;;;5013841;28;20403;-48
2021/08/29 02:37:45;;;;;;;10.87;6.53;;;;;;;;;;4995180;28;20542;-49
2021/08/29 02:40:11;;;;;;;9.13;6.70;;;;;;;;;;5013730;28;20482;-47
2021/08/29 02:42:38;;;;;;;9.40;7.30;;;;;;;;;;5013441;28;20405;-47
2021/08/29 02:45:06;;;;;;;10.53;7.50;;;;;;;;;;5013691;28;20406;-48
2021/08/29 02:47:32;;;;;;;10.57;8.13;;;;;;;;;;4996032;28;20481;-48
2021/08/29 02:49:58;;;;;;;14.70;7.60;;;;;;;;;;5013559;28;20467;-48
2021/08/29 02:52:24;;;;;;;12.13;8.17;;;;;;;;;;5011363;28;20493;-46
2021/08/29 02:54:51;;;;;;;23.30;8.00;;;;;;;;;;5013469;28;20380;-47
2021/08/29 02:57:19;;;;;;;9.53;7.40;;;;;;;;;;5013316;28;20445;-49
2021/08/29 02:59:45;;;;;;;13.10;8.33;;;;;;;;;;5013409;28;20857;-49
2021/08/29 03:02:12;;;;;;;12.43;8.70;;;;;;;;;;5013873;28;20410;-48
2021/08/29 03:04:38;;;;;;;12.37;8.93;;;;;;;;;;5012301;28;20483;-48
2021/08/29 03:07:05;;;;;;;16.90;8.90;;;;;;;;;;5012275;28;20462;-49
2021/08/29 03:09:34;;;;;;;11.30;9.40;;;;;;;;;;5013122;28;20438;-49
2021/08/29 03:12:07;;;;;;;12.70;8.50;;;;;;;;;;5012833;28;20462;-47
2021/08/29 03:14:33;;;;;;;19.07;9.70;;;;;;;;;;5013188;28;20410;-48
2021/08/29 03:16:59;;;;;;;18.37;8.63;;;;;;;;;;5013049;28;20457;-49
2021/08/29 03:19:25;;;;;;;16.43;9.70;;;;;;;;;;5013094;28;20403;-48
2021/08/29 03:21:52;;;;;;;19.50;9.13;;;;;;;;;;5012759;28;20491;-48
2021/08/29 03:24:18;;;;;;;14.37;9.00;;;;;;;;;;5013064;28;20385;-48
2021/08/29 03:26:44;;;;;;;13.43;9.50;;;;;;;;;;5012938;28;20434;-48
2021/08/29 03:29:11;;;;;;;13.00;9.07;;;;;;;;;;5012892;28;20471;-48
2021/08/29 03:31:37;;;;;;;14.33;9.80;;;;;;;;;;5012493;28;20434;-46
2021/08/29 03:34:05;;;;;;;17.13;10.80;;;;;;;;;;5012878;28;20398;-46
2021/08/29 03:36:32;;;;;;;13.77;9.20;;;;;;;;;;5011657;28;21120;-47
2021/08/29 03:38:58;;;;;;;13.60;9.53;;;;;;;;;;5012755;28;20410;-46
2021/08/29 03:41:24;;;;;;;15.57;9.73;;;;;;;;;;5012463;28;20426;-47
2021/08/29 03:43:50;;;;;;;20.60;9.10;;;;;;;;;;5012650;28;20882;-46
2021/08/29 03:46:16;;;;;;;14.83;9.90;;;;;;;;;;5012610;28;20851;-48
2021/08/29 03:48:45;;;;;;;12.57;9.80;;;;;;;;;;5012563;28;20459;-48
2021/08/29 03:51:13;;;;;;;14.53;9.27;;;;;;;;;;5012151;28;20962;-49
2021/08/29 03:53:40;;;;;;;14.73;10.37;;;;;;;;;;5012495;28;20410;-48
2021/08/29 03:56:07;;;;;;;15.80;10.47;;;;;;;;;;5012468;28;20746;-49
2021/08/29 03:58:35;;;;;;;19.57;10.20;;;;;;;;;;5012262;28;20425;-47
2021/08/29 04:01:02;;;;;;;14.23;8.90;;;;;;;;;;5012118;28;20883;-48
2021/08/29 04:03:28;;;;;;;18.63;9.33;;;;;;;;;;5012262;28;20786;-49
2021/08/29 04:05:55;;;;;;;12.10;9.23;;;;;;;;;;5010534;28;20934;-48
2021/08/29 04:08:26;;;;;;;17.27;9.80;;;;;;;;;;5011410;28;20481;-47
2021/08/29 04:10:53;;;;;;;17.13;9.60;;;;;;;;;;5011993;28;20479;-47
2021/08/29 04:13:21;;;;;;;21.77;9.83;;;;;;;;;;5012257;28;20903;-48
2021/08/29 04:15:47;;;;;;;13.40;9.33;;;;;;;;;;5012391;28;20422;-48
2021/08/29 04:18:14;;;;;;;15.80;9.80;;;;;;;;;;5011812;28;20433;-48
2021/08/29 04:20:40;;;;;;;16.57;9.47;;;;;;;;;;5012166;28;21200;-49
2021/08/29 04:23:06;;;;;;;10.47;9.37;;;;;;;;;;5011916;28;20456;-49
2021/08/29 04:25:32;;;;;;;15.63;10.23;;;;;;;;;;5012159;28;20399;-49
2021/08/29 04:27:58;;;;;;;16.17;9.60;;;;;;;;;;5012026;28;20398;-48
2021/08/29 04:30:24;;;;;;;16.83;10.07;;;;;;;;;;5012005;28;20996;-48
2021/08/29 04:32:52;;;;;;;15.00;10.50;;;;;;;;;;5011789;28;20757;-48
2021/08/29 04:35:18;;;;;;;15.10;9.50;;;;;;;;;;5011237;28;20916;-48
2021/08/29 04:37:44;;;;;;;18.80;10.30;;;;;;;;;;5011935;28;20497;-48
2021/08/29 04:40:10;;;;;;;14.57;10.07;;;;;;;;;;5012006;28;20747;-49
2021/08/29 04:42:36;;;;;;;13.13;10.20;;;;;;;;;;5011600;28;20391;-48
2021/08/29 04:45:02;;;;;;;14.90;9.63;;;;;;;;;;5011849;28;20399;-49
2021/08/29 04:47:28;;;;;;;14.43;9.97;;;;;;;;;;5011823;28;20426;-48
2021/08/29 04:49:54;;;;;;;22.10;10.33;;;;;;;;;;5011941;28;20746;-47
2021/08/29 04:52:20;;;;;;;12.27;9.40;;;;;;;;;;5011514;28;20476;-47
2021/08/29 04:54:46;;;;;;;16.77;9.53;;;;;;;;;;5011881;28;20403;-47
2021/08/29 04:57:12;;;;;;;14.27;10.50;;;;;;;;;;5011559;28;20755;-47
2021/08/29 04:59:38;;;;;;;17.97;9.53;;;;;;;;;;5011778;28;20406;-48
2021/08/29 05:02:04;;;;;;;11.43;9.60;;;;;;;;;;5011523;28;20470;-49
2021/08/29 05:04:30;;;;;;;15.63;10.07;;;;;;;;;;5010024;28;20395;-48
2021/08/29 05:06:56;;;;;;;23.30;11.07;;;;;;;;;;5011675;28;20795;-47
2021/08/29 05:09:22;;;;;;;14.53;9.37;;;;;;;;;;5011726;28;20406;-49
2021/08/29 05:11:48;;;;;;;14.40;9.90;;;;;;;;;;5011289;28;20967;-48
2021/08/29 05:14:14;;;;;;;16.33;8.93;;;;;;;;;;5011659;28;20847;-48
2021/08/29 05:16:40;;;;;;;13.13;9.70;;;;;;;;;;5011540;28;20427;-47
2021/08/29 05:19:06;;;;;;;18.73;11.07;;;;;;;;;;5011654;28;20396;-47
2021/08/29 05:21:32;;;;;;;17.70;9.70;;;;;;;;;;5011319;28;20929;-48
2021/08/29 05:23:58;;;;;;;20.63;10.47;;;;;;;;;;5011598;28;20403;-49
2021/08/29 05:26:24;;;;;;;20.90;10.23;;;;;;;;;;5011453;28;20442;-49
2021/08/29 05:28:50;;;;;;;21.13;9.43;;;;;;;;;;5011485;28;20390;-47
2021/08/29 05:31:16;;;;;;;17.53;9.07;;;;;;;;;;5013636;28;20450;-48
2021/08/29 05:33:42;;;;;;;16.27;9.60;;;;;;;;;;5015093;28;20374;-48
2021/08/29 05:36:08;;;;;;;12.03;8.40;;;;;;;;;;5012813;28;20459;-49
2021/08/29 05:38:34;;;;;;;22.53;9.90;;;;;;;;;;5014955;28;20445;-47
2021/08/29 05:41:00;;;;;;;18.03;9.47;;;;;;;;;;5014633;28;20440;-48
2021/08/29 05:43:26;;;;;;;15.70;8.20;;;;;;;;;;5013991;28;20378;-49
2021/08/29 05:45:52;;;;;;;11.17;9.00;;;;;;;;;;5014791;28;20460;-48
2021/08/29 05:48:18;;;;;;;13.00;10.77;;;;;;;;;;5014765;28;20434;-47
2021/08/29 05:50:44;;;;;;;17.10;9.37;;;;;;;;;;5014516;28;20450;-49
2021/08/29 05:53:10;;;;;;;12.40;8.10;;;;;;;;;;5014553;28;20940;-48
2021/08/29 05:55:36;;;;;;;14.23;8.70;;;;;;;;;;5014618;28;20395;-47
2021/08/29 05:58:02;;;;;;;14.77;8.87;;;;;;;;;;5014451;28;20860;-48
2021/08/29 06:00:27;;;;;;;19.43;8.50;;;;;;;;;;5014610;28;20488;-49
2021/08/29 06:02:53;;;;;;;14.93;8.10;;;;;;;;;;5014246;28;20407;-49
2021/08/29 06:05:19;;;;;;;14.10;8.90;;;;;;;;;;5016146;28;20435;-47
2021/08/29 06:07:45;;;;;;;13.90;8.50;;;;;;;;;;5013599;28;20455;-46
2021/08/29 06:10:12;;;;;;;15.23;8.90;;;;;;;;;;5013719;28;20407;-46
2021/08/29 06:12:38;;;;;;;15.97;8.50;;;;;;;;;;5014100;28;20750;-48
2021/08/29 06:15:07;;;;;;;14.73;9.00;;;;;;;;;;5014355;28;20478;-47
2021/08/29 06:17:33;;;;;;;17.93;8.70;;;;;;;;;;5014043;28;20401;-47
2021/08/29 06:19:59;;;;;;;13.77;10.57;;;;;;;;;;5014168;28;20382;-47
2021/08/29 06:22:26;;;;;;;17.73;8.10;;;;;;;;;;5013884;28;20383;-47
2021/08/29 06:24:51;;;;;;;14.33;9.20;;;;;;;;;;5014052;28;21037;-48
2021/08/29 06:27:17;;;;;;;12.37;8.30;;;;;;;;;;5014030;28;20481;-48
2021/08/29 06:29:44;;;;;;;11.50;7.87;;;;;;;;;;5013954;28;20384;-49
2021/08/29 06:32:10;;;;;;;12.67;7.53;;;;;;;;;;5012540;28;20430;-47
2021/08/29 06:34:36;;;;;;;16.77;8.50;;;;;;;;;;5011363;28;20461;-46
2021/08/29 06:37:01;;;;;;;13.83;7.47;;;;;;;;;;5013475;28;20405;-46
2021/08/29 06:39:27;;;;;;;16.13;8.40;;;;;;;;;;5013594;28;20377;-49
2021/08/29 06:41:53;;;;;;;11.27;8.00;;;;;;;;;;5013320;28;20915;-47
2021/08/29 06:44:19;;;;;;;15.80;7.67;;;;;;;;;;5013770;28;20465;-47
2021/08/29 06:46:45;;;;;;;11.80;7.40;;;;;;;;;;5013563;28;20395;-47
2021/08/29 06:49:11;;;;;;;16.70;8.63;;;;;;;;;;5013616;28;20416;-47
2021/08/29 06:51:37;;;;;;;11.30;8.20;;;;;;;;;;5013235;28;20434;-49
2021/08/29 06:54:03;;;;;;;12.20;7.83;;;;;;;;;;5013534;28;20411;-48
2021/08/29 06:56:29;;;;;;;19.50;9.07;;;;;;;;;;5013411;28;20871;-48
2021/08/29 06:58:55;;;;;;;12.00;8.50;;;;;;;;;;5013415;28;20409;-48
2021/08/29 07:01:21;;;;;;;11.00;7.50;;;;;;;;;;5013148;28;20438;-49
2021/08/29 07:03:47;;;;;;;8.90;7.43;;;;;;;;;;5013337;28;20461;-49
2021/08/29 07:06:13;;;;;;;13.70;8.30;;;;;;;;;;5011601;28;20427;-49
2021/08/29 07:08:39;;;;;;;15.90;8.43;;;;;;;;;;5013152;28;20926;-47
2021/08/29 07:11:05;;;;;;;21.60;8.27;;;;;;;;;;5012896;28;20437;-48
2021/08/29 07:13:31;;;;;;;10.10;7.40;;;;;;;;;;5013289;28;20395;-47
2021/08/29 07:15:57;;;;;;;15.40;9.00;;;;;;;;;;5013192;28;20379;-46
2021/08/29 07:18:23;;;;;;;12.13;8.60;;;;;;;;;;5013078;28;20476;-46
2021/08/29 07:20:49;;;;;;;16.07;8.20;;;;;;;;;;5012819;28;20412;-45
2021/08/29 07:23:17;;;;;;;9.77;8.00;;;;;;;;;;5012944;28;20434;-49
2021/08/29 07:25:44;;;;;;;16.43;8.63;;;;;;;;;;5013096;28;20745;-48
2021/08/29 07:28:10;;;;;;;17.63;9.13;;;;;;;;;;5012832;28;20520;-49
2021/08/29 07:30:36;;;;;;;10.97;8.27;;;;;;;;;;5012949;28;20546;-48
2021/08/29 07:33:02;;;;;;;15.93;8.50;;;;;;;;;;5012500;28;20370;-48
2021/08/29 07:35:28;;;;;;;21.37;8.83;;;;;;;;;;5011883;28;20443;-49
2021/08/29 07:37:54;;;;;;;10.50;7.20;;;;;;;;;;5012646;28;20415;-49
2021/08/29 07:40:20;;;;;;;11.00;7.70;;;;;;;;;;5012731;28;20835;-48
2021/08/29 07:42:46;;;;;;;15.73;7.63;;;;;;;;;;5012368;28;20941;-49
2021/08/29 07:45:13;;;;;;;13.80;8.67;;;;;;;;;;5012636;28;20512;-48
2021/08/29 07:47:39;;;;;;;15.23;7.90;;;;;;;;;;5012204;28;20407;-49
2021/08/29 07:50:06;;;;;;;13.63;7.80;;;;;;;;;;5010807;28;20382;-48
2021/08/29 07:52:32;;;;;;;19.80;8.97;;;;;;;;;;5010667;28;20429;-48
2021/08/29 07:54:58;;;;;;;13.23;8.33;;;;;;;;;;5012399;28;20778;-47
2021/08/29 07:57:23;;;;;;;8.77;7.83;;;;;;;;;;5012208;28;20468;-47
2021/08/29 07:59:49;;;;;;;19.67;8.70;;;;;;;;;;5011855;28;20408;-49
2021/08/29 08:02:16;;;;;;;14.03;8.23;;;;;;;;;;5012222;28;20402;-48
2021/08/29 08:04:42;;;;;;;8.43;7.53;;;;;;;;;;5011681;28;20435;-46
2021/08/29 08:07:08;;;;;;;12.40;8.30;;;;;;;;;;5011967;28;20435;-49
2021/08/29 08:09:34;;;;;;;11.13;7.33;;;;;;;;;;5012370;28;20377;-48
2021/08/29 08:12:00;;;;;;;8.43;7.37;;;;;;;;;;5011869;28;20465;-47
2021/08/29 08:14:26;;;;;;;8.43;7.33;;;;;;;;;;5012346;28;20375;-48
2021/08/29 08:16:52;;;;;;;9.20;7.10;;;;;;;;;;5012224;28;20394;-48
2021/08/29 08:19:18;;;;;;;6.27;5.67;;;;;;;;;;5012209;28;20399;-48
2021/08/29 08:21:44;;;;;;;6.37;5.77;;;;;;;;;;5011813;28;20407;-48
2021/08/29 08:24:10;;;;;;;10.07;5.43;;;;;;;;;;5012023;28;20460;-48
2021/08/29 08:26:36;;;;;;;9.67;6.57;;;;;;;;;;5012117;28;20384;-47
2021/08/29 08:29:02;;;;;;;8.27;6.10;;;;;;;;;;5012106;28;20798;-46
2021/08/29 08:31:28;;;;;;;6.07;4.77;;;;;;;;;;5013088;28;20523;-47
2021/08/29 08:33:54;;;;;;;5.80;5.33;;;;;;;;;;5011943;28;20381;-48
2021/08/29 08:36:20;;;;;;;10.00;5.57;;;;;;;;;;5010111;28;20407;-48
2021/08/29 08:38:46;;;;;;;6.00;4.73;;;;;;;;;;4992397;28;20367;-47
2021/08/29 08:41:12;;;;;;;6.17;4.50;;;;;;;;;;4992096;28;20466;-48
2021/08/29 08:43:37;;;;;;;7.57;4.73;;;;;;;;;;4992338;28;20404;-47
2021/08/29 08:46:04;;;;;;;8.93;5.10;;;;;;;;;;4992262;28;20808;-48
2021/08/29 08:48:30;;;;;;;4.67;4.27;;;;;;;;;;4992204;28;20394;-46
2021/08/29 08:50:57;;;;;;;4.53;4.03;;;;;;;;;;4991823;28;20452;-47
2021/08/29 08:53:25;;;;;;;4.53;3.60;;;;;;;;;;4992364;28;20379;-46
2021/08/29 08:55:51;;;;;;;12.50;3.73;;;;;;;;;;4992503;28;20402;-48
2021/08/29 08:58:18;;;;;;;3.90;3.60;;;;;;;;;;4991958;28;20436;-48
2021/08/29 09:00:44;;;;;;;6.10;4.40;;;;;;;;;;4992094;28;20414;-48
2021/08/29 09:03:11;;;;;;;8.03;3.83;;;;;;;;;;4991976;28;20379;-46
2021/08/29 09:05:37;;;;;;;4.43;3.93;;;;;;;;;;5001587;28;20539;-48
2021/08/29 09:08:03;;;;;;;6.50;4.10;;;;;;;;;;5015433;28;20407;-47
2021/08/29 09:10:29;;;;;;;7.47;4.67;;;;;;;;;;5015383;28;20433;-47
2021/08/29 09:12:56;;;;;;;6.97;4.90;;;;;;;;;;5015198;28;20408;-47
2021/08/29 09:15:22;;;;;;;7.73;4.40;;;;;;;;;;5015499;28;20948;-47
2021/08/29 09:17:48;;;;;;;5.07;4.40;;;;;;;;;;5015764;28;20932;-48
2021/08/29 09:20:24;;;;;;;9.97;5.10;;;;;;;;;;5015290;28;20370;-47
2021/08/29 09:22:56;;;;;;;9.60;4.70;;;;;;;;;;5014913;28;20375;-46
2021/08/29 09:25:23;;;;;;;9.50;5.30;;;;;;;;;;5015261;28;20483;-46
2021/08/29 09:27:53;;;;;;;10.63;6.07;;;;;;;;;;5015130;28;20400;-47
2021/08/29 09:30:20;;;;;;;7.50;6.90;;;;;;;;;;5015004;28;20374;-46
2021/08/29 09:32:47;;;;;;;11.83;7.43;;;;;;;;;;5014844;28;20839;-49
2021/08/29 09:35:13;;;;;;;8.60;7.80;;;;;;;;;;5013237;28;20389;-49
2021/08/29 09:37:39;;;;;;;11.40;7.77;;;;;;;;;;5015181;28;20783;-47
2021/08/29 09:40:15;;;;;;;9.23;8.33;;;;;;;;;;5015037;28;20400;-46
2021/08/29 09:42:42;;;;;;;9.87;7.40;;;;;;;;;;4996956;28;20410;-48
2021/08/29 09:45:08;;;;;;;9.30;6.73;;;;;;;;;;5014604;28;20827;-48
2021/08/29 09:47:35;;;;;;;5.93;5.50;;;;;;;;;;5014199;28;20459;-48
2021/08/29 09:50:04;;;;;;;6.77;4.80;;;;;;;;;;5014837;28;20382;-49
2021/08/29 09:52:30;;;;;;;6.97;4.33;;;;;;;;;;5014411;28;20431;-48
2021/08/29 09:54:56;;;;;;;7.07;4.63;;;;;;;;;;5014551;28;20483;-47
2021/08/29 09:57:22;;;;;;;5.30;4.30;;;;;;;;;;5010662;28;20532;-48
2021/08/29 09:59:49;;;;;;;7.63;4.20;;;;;;;;;;5014959;28;20907;-46
2021/08/29 10:02:24;;;;;;;4.70;4.30;;;;;;;;;;5014818;28;20417;-48
2021/08/29 10:05:08;;;;;;;4.17;3.83;;;;;;;;;;5014887;28;20454;-48
2021/08/29 10:07:35;;;;;;;7.93;4.90;;;;;;;;;;5012761;28;20460;-47
2021/08/29 10:10:20;;;;;;;7.57;4.20;;;;;;;;;;5014595;28;20776;-47
2021/08/29 10:12:46;;;;;;;5.97;5.37;;;;;;;;;;5011874;28;20429;-48
2021/08/29 10:15:12;;;;;;;5.03;3.93;;;;;;;;;;5013973;28;20387;-49
2021/08/29 10:17:40;;;;;;;5.60;4.90;;;;;;;;;;5013748;28;20996;-49
2021/08/29 10:20:07;;;;;;;7.13;4.53;;;;;;;;;;5014160;28;20375;-47
2021/08/29 10:22:35;;;;;;;5.90;4.10;;;;;;;;;;5013919;28;20376;-49
2021/08/29 10:25:02;;;;;;;4.07;3.77;;;;;;;;;;5014280;28;20372;-48
2021/08/29 10:27:28;;;;;;;6.63;4.37;;;;;;;;;;5013914;28;20798;-47
2021/08/29 10:29:56;;;;;;;7.23;5.03;;;;;;;;;;4999134;28;20914;-49
2021/08/29 10:32:26;;;;;;;10.57;4.60;;;;;;;;;;4992317;28;21169;-49
2021/08/29 10:34:52;;;;;;;8.33;4.47;;;;;;;;;;4992446;28;20383;-49
2021/08/29 10:37:18;;;;;;;5.40;4.90;;;;;;;;;;5010199;28;20479;-48
2021/08/29 10:39:44;;;;;;;5.53;5.07;;;;;;;;;;5008523;28;20409;-47
2021/08/29 10:42:11;;;;;;;14.53;5.03;;;;;;;;;;5011154;28;20917;-48
2021/08/29 10:44:38;;;;;;;30.67;5.67;;;;;;;;;;5010598;28;20433;-47
2021/08/29 10:47:04;;;;;;;8.90;5.03;;;;;;;;;;5010880;28;20440;-46
2021/08/29 10:49:31;;;;;;;8.73;5.47;;;;;;;;;;5011685;28;20417;-49
2021/08/29 10:51:58;;;;;;;5.27;4.87;;;;;;;;;;5009070;28;20434;-47
2021/08/29 10:54:24;;;;;;;5.83;5.30;;;;;;;;;;4994473;28;20970;-48
2021/08/29 10:56:50;;;;;;;4.43;4.03;;;;;;;;;;4992273;28;20439;-48
2021/08/29 10:59:20;;;;;;;4.30;3.90;;;;;;;;;;4992298;28;20846;-48
2021/08/29 11:01:47;;;;;;;8.33;3.60;;;;;;;;;;4992557;28;20385;-47
2021/08/29 11:04:22;;;;;;;3.63;3.00;;;;;;;;;;4993687;28;20388;-48
2021/08/29 11:06:48;;;;;;;3.50;3.27;;;;;;;;;;5007285;28;20521;-48
2021/08/29 11:09:35;;;;;;;4.30;2.60;;;;;;;;;;5013335;28;20490;-48
2021/08/29 11:12:06;;;;;;;2.77;2.60;;;;;;;;;;5012107;28;20440;-49
2021/08/29 11:14:47;;;;;;;3.00;2.57;;;;;;;;;;5012272;28;20404;-47
2021/08/29 11:17:13;;;;;;;2.90;2.70;;;;;;;;;;5012970;28;20781;-48
2021/08/29 11:19:40;;;;;;;4.00;3.40;;;;;;;;;;5013077;28;20386;-48
2021/08/29 11:22:07;;;;;;;2.60;2.50;;;;;;;;;;5011775;28;20506;-49
2021/08/29 11:24:53;;;;;;;3.63;2.70;;;;;;;;;;5012569;28;20440;-48
2021/08/29 11:27:38;;;;;;;10.57;2.73;;;;;;;;;;5012400;28;20396;-48
2021/08/29 11:33:04;;;;;;;2.37;2.27;;;;;;;;;;4992237;28;20403;-46
2021/08/29 11:35:47;;;;;;;2.93;2.43;;;;;;;;;;4992888;28;20371;-49
2021/08/29 11:38:22;;;;;;;3.27;2.77;;;;;;;;;;5000285;28;20831;-47
2021/08/29 11:40:51;;;;;;;2.90;2.70;;;;;;;;;;5012167;28;20436;-48
2021/08/29 11:43:22;;;;;;;3.33;3.03;;;;;;;;;;5012012;28;20460;-48
2021/08/29 11:45:58;;;;;;;2.70;2.53;;;;;;;;;;5012618;28;20401;-46
2021/08/29 11:48:28;;;;;;;2.47;2.37;;;;;;;;;;5012292;28;20437;-46
2021/08/29 11:50:55;;;;;;;2.60;2.50;;;;;;;;;;5012097;28;20484;-47
2021/08/29 11:53:21;;;;;;;2.97;2.77;;;;;;;;;;5012014;28;20423;-48
2021/08/29 11:55:47;;;;;;;4.30;3.30;;;;;;;;;;5012521;28;20389;-46
2021/08/29 11:58:19;;;;;;;4.40;2.93;;;;;;;;;;5012256;28;20441;-46
2021/08/29 12:00:45;;;;;;;3.50;3.30;;;;;;;;;;5012268;28;20399;-47
2021/08/29 12:03:11;;;;;;;3.80;3.50;;;;;;;;;;5012171;28;20408;-48
2021/08/29 12:05:49;;;;;;;3.90;3.60;;;;;;;;;;5010685;28;20412;-47
2021/08/29 12:08:16;;;;;;;3.50;3.30;;;;;;;;;;5012113;28;20505;-49
2021/08/29 12:10:42;;;;;;;4.63;4.23;;;;;;;;;;5012289;28;20807;-46
2021/08/29 12:13:10;;;;;;;3.93;3.63;;;;;;;;;;5011687;28;20425;-47
2021/08/29 12:15:36;;;;;;;5.53;4.00;;;;;;;;;;5012072;28;20409;-47
2021/08/29 12:18:03;;;;;;;5.97;3.80;;;;;;;;;;5012182;28;20405;-46
2021/08/29 12:20:29;;;;;;;4.70;4.30;;;;;;;;;;5012026;28;20467;-49
2021/08/29 12:23:02;;;;;;;4.70;4.30;;;;;;;;;;5011878;28;20808;-48
2021/08/29 12:25:28;;;;;;;9.50;4.80;;;;;;;;;;5011934;28;20437;-46
2021/08/29 12:28:06;;;;;;;5.00;4.70;;;;;;;;;;5011958;28;20484;-49
2021/08/29 12:30:32;;;;;;;4.63;4.33;;;;;;;;;;5012010;28;20863;-49
2021/08/29 12:33:08;;;;;;;5.53;5.03;;;;;;;;;;5011797;28;20424;-49
2021/08/29 12:35:34;;;;;;;4.93;4.40;;;;;;;;;;5009696;28;20992;-49
2021/08/29 12:38:00;;;;;;;5.73;5.10;;;;;;;;;;5011222;28;20453;-48
2021/08/29 12:40:27;;;;;;;5.83;5.23;;;;;;;;;;5015039;28;20464;-47
2021/08/29 12:42:56;;;;;;;5.63;4.60;;;;;;;;;;5015668;28;20450;-49
2021/08/29 12:45:22;;;;;;;5.97;5.20;;;;;;;;;;5015989;28;20433;-48
2021/08/29 12:47:48;;;;;;;5.60;5.10;;;;;;;;;;5015905;28;20495;-47
2021/08/29 12:50:18;;;;;;;5.60;5.20;;;;;;;;;;5015644;28;20785;-48
2021/08/29 12:52:46;;;;;;;4.83;4.43;;;;;;;;;;5015293;28;20465;-48
2021/08/29 12:55:16;;;;;;;5.70;4.70;;;;;;;;;;5015809;28;20428;-49
2021/08/29 12:57:42;;;;;;;6.13;5.53;;;;;;;;;;5015586;28;20445;-49
2021/08/29 13:00:09;;;;;;;7.00;5.73;;;;;;;;;;5015725;28;20734;-49
2021/08/29 13:02:43;;;;;;;7.10;5.80;;;;;;;;;;5015386;28;20421;-48
2021/08/29 13:05:10;;;;;;;5.93;5.43;;;;;;;;;;5013992;28;20456;-49
2021/08/29 13:07:49;;;;;;;7.53;6.87;;;;;;;;;;5015446;28;20521;-48
2021/08/29 13:10:16;;;;;;;6.03;5.43;;;;;;;;;;5015617;28;20409;-49
2021/08/29 13:12:42;;;;;;;6.80;6.10;;;;;;;;;;5015169;28;20993;-47
2021/08/29 13:15:08;;;;;;;5.90;5.40;;;;;;;;;;5015332;28;20403;-47
2021/08/29 13:17:44;;;;;;;6.40;5.90;;;;;;;;;;5015058;28;20483;-49
2021/08/29 13:20:10;;;;;;;6.17;5.57;;;;;;;;;;5015019;28;20374;-48
2021/08/29 13:22:38;;;;;;;8.17;6.93;;;;;;;;;;5014957;28;20385;-48
2021/08/29 13:25:28;;;;;;;6.80;5.37;;;;;;;;;;5014629;28;20407;-49
2021/08/29 13:27:55;;;;;;;6.90;6.10;;;;;;;;;;5015126;28;20907;-48
2021/08/29 13:30:22;;;;;;;6.03;5.43;;;;;;;;;;5015204;28;20411;-48
2021/08/29 13:32:48;;;;;;;6.37;5.77;;;;;;;;;;5014867;28;20469;-48
2021/08/29 13:35:14;;;;;;;6.93;6.33;;;;;;;;;;5012968;28;20429;-49
2021/08/29 13:37:45;;;;;;;6.90;6.20;;;;;;;;;;5014610;28;20403;-50
2021/08/29 13:40:13;;;;;;;8.93;6.60;;;;;;;;;;5014097;28;20414;-49
2021/08/29 13:42:39;;;;;;;8.17;6.60;;;;;;;;;;5013610;28;20395;-50
2021/08/29 13:45:10;;;;;;;6.97;6.47;;;;;;;;;;5014318;28;20400;-49
2021/08/29 13:47:36;;;;;;;7.37;6.77;;;;;;;;;;5013911;28;20403;-47
2021/08/29 13:50:02;;;;;;;8.47;7.00;;;;;;;;;;5013612;28;20409;-49
2021/08/29 13:52:34;;;;;;;7.70;7.10;;;;;;;;;;5012666;28;20462;-49
2021/08/29 13:55:00;;;;;;;9.33;6.60;;;;;;;;;;5013331;28;20366;-48
2021/08/29 13:57:27;;;;;;;7.53;6.73;;;;;;;;;;5013508;28;20831;-49
2021/08/29 13:59:53;;;;;;;8.13;7.33;;;;;;;;;;5013189;28;20373;-49
2021/08/29 14:02:19;;;;;;;13.03;6.90;;;;;;;;;;5013511;28;20776;-47
2021/08/29 14:04:46;;;;;;;8.00;7.10;;;;;;;;;;5011261;28;20575;-47
2021/08/29 14:07:12;;;;;;;8.20;7.40;;;;;;;;;;5013334;28;20888;-49
2021/08/29 14:09:38;;;;;;;7.97;7.17;;;;;;;;;;5013606;28;20407;-48
2021/08/29 14:12:04;;;;;;;7.60;6.87;;;;;;;;;;5012788;28;20440;-47
2021/08/29 14:14:30;;;;;;;7.50;6.90;;;;;;;;;;5013157;28;20407;-49
2021/08/29 14:16:56;;;;;;;8.17;7.37;;;;;;;;;;5013416;28;20407;-49
2021/08/29 14:19:22;;;;;;;7.53;6.93;;;;;;;;;;5013381;28;20379;-48
2021/08/29 14:21:48;;;;;;;6.73;6.13;;;;;;;;;;5012967;28;20502;-47
2021/08/29 14:24:14;;;;;;;7.70;7.00;;;;;;;;;;5012358;28;20521;-48
2021/08/29 14:26:40;;;;;;;6.37;5.77;;;;;;;;;;5013595;28;20384;-50
2021/08/29 14:29:06;;;;;;;6.90;6.27;;;;;;;;;;5013962;28;20430;-50
2021/08/29 14:31:35;;;;;;;6.90;6.20;;;;;;;;;;5013681;28;20462;-48
2021/08/29 14:34:01;;;;;;;8.00;7.20;;;;;;;;;;5012977;28;20767;-50
2021/08/29 14:36:27;;;;;;;5.67;5.17;;;;;;;;;;5013869;28;20438;-48
2021/08/29 14:38:53;;;;;;;5.80;5.30;;;;;;;;;;5013865;28;20377;-47